sensor_id;sensor_type;location;lat;lon;timestamp;P1;durP1;ratioP1;P2;durP2;ratioP2
67889;SDS011;54685;52.082;5.426;2023-08-21T00:00:13;8.48;;;2.50;;
67889;SDS011;54685;52.082;5.426;2023-08-21T00:02:40;6.75;;;2.80;;
67889;SDS011;54685;52.082;5.426;2023-08-21T00:05:07;9.05;;;2.75;;
67889;SDS011;54685;52.082;5.426;2023-08-21T00:07:34;12.07;;;3.33;;
67889;SDS011;54685;52.082;5.426;2023-08-21T00:10:01;8.40;;;2.67;;
67889;SDS011;54685;52.082;5.426;2023-08-21T00:12:27;5.85;;;2.60;;
67889;SDS011;54685;52.082;5.426;2023-08-21T00:14:54;6.93;;;2.35;;
67889;SDS011;54685;52.082;5.426;2023-08-21T00:17:21;4.28;;;2.20;;
67889;SDS011;54685;52.082;5.426;2023-08-21T00:19:48;11.20;;;2.70;;
67889;SDS011;54685;52.082;5.426;2023-08-21T00:22:15;8.07;;;2.28;;
67889;SDS011;54685;52.082;5.426;2023-08-21T00:24:42;9.77;;;2.67;;
67889;SDS011;54685;52.082;5.426;2023-08-21T00:27:09;9.35;;;2.55;;
67889;SDS011;54685;52.082;5.426;2023-08-21T00:29:36;6.30;;;2.30;;
67889;SDS011;54685;52.082;5.426;2023-08-21T00:32:03;7.90;;;2.55;;
67889;SDS011;54685;52.082;5.426;2023-08-21T00:34:29;6.00;;;2.25;;
67889;SDS011;54685;52.082;5.426;2023-08-21T00:36:56;12.32;;;2.92;;
67889;SDS011;54685;52.082;5.426;2023-08-21T00:39:23;8.50;;;2.70;;
67889;SDS011;54685;52.082;5.426;2023-08-21T00:41:50;10.60;;;2.83;;
67889;SDS011;54685;52.082;5.426;2023-08-21T00:44:17;5.82;;;2.38;;
67889;SDS011;54685;52.082;5.426;2023-08-21T00:46:43;6.07;;;2.05;;
67889;SDS011;54685;52.082;5.426;2023-08-21T00:49:10;5.32;;;2.20;;
67889;SDS011;54685;52.082;5.426;2023-08-21T00:51:38;7.88;;;2.15;;
67889;SDS011;54685;52.082;5.426;2023-08-21T00:54:05;5.70;;;2.72;;
67889;SDS011;54685;52.082;5.426;2023-08-21T00:56:32;13.23;;;2.33;;
67889;SDS011;54685;52.082;5.426;2023-08-21T00:58:59;5.68;;;2.47;;
67889;SDS011;54685;52.082;5.426;2023-08-21T01:01:27;7.10;;;2.55;;
67889;SDS011;54685;52.082;5.426;2023-08-21T01:03:55;4.22;;;1.98;;
67889;SDS011;54685;52.082;5.426;2023-08-21T01:06:21;8.70;;;2.47;;
67889;SDS011;54685;52.082;5.426;2023-08-21T01:11:32;5.85;;;2.50;;
67889;SDS011;54685;52.082;5.426;2023-08-21T01:17:00;8.68;;;2.38;;
67889;SDS011;54685;52.082;5.426;2023-08-21T01:19:35;10.82;;;3.85;;
67889;SDS011;54685;52.082;5.426;2023-08-21T01:22:05;9.73;;;3.15;;
67889;SDS011;54685;52.082;5.426;2023-08-21T01:24:32;6.85;;;3.15;;
67889;SDS011;54685;52.082;5.426;2023-08-21T01:26:59;9.38;;;2.67;;
67889;SDS011;54685;52.082;5.426;2023-08-21T01:29:27;5.22;;;2.53;;
67889;SDS011;54685;52.082;5.426;2023-08-21T01:34:36;9.03;;;2.97;;
67889;SDS011;54685;52.082;5.426;2023-08-21T01:37:06;6.50;;;2.30;;
67889;SDS011;54685;52.082;5.426;2023-08-21T01:39:34;4.32;;;2.10;;
67889;SDS011;54685;52.082;5.426;2023-08-21T01:42:01;10.05;;;2.42;;
67889;SDS011;54685;52.082;5.426;2023-08-21T01:44:31;4.22;;;2.00;;
67889;SDS011;54685;52.082;5.426;2023-08-21T01:46:58;8.82;;;2.22;;
67889;SDS011;54685;52.082;5.426;2023-08-21T01:49:25;6.05;;;2.10;;
67889;SDS011;54685;52.082;5.426;2023-08-21T01:51:51;6.85;;;2.00;;
67889;SDS011;54685;52.082;5.426;2023-08-21T01:54:18;5.35;;;2.15;;
67889;SDS011;54685;52.082;5.426;2023-08-21T01:56:45;7.00;;;2.30;;
67889;SDS011;54685;52.082;5.426;2023-08-21T01:59:12;6.82;;;1.98;;
67889;SDS011;54685;52.082;5.426;2023-08-21T02:01:39;5.50;;;2.00;;
67889;SDS011;54685;52.082;5.426;2023-08-21T02:04:06;11.68;;;2.08;;
67889;SDS011;54685;52.082;5.426;2023-08-21T02:06:33;6.30;;;1.75;;
67889;SDS011;54685;52.082;5.426;2023-08-21T02:09:00;8.13;;;1.90;;
67889;SDS011;54685;52.082;5.426;2023-08-21T02:11:27;6.18;;;1.80;;
67889;SDS011;54685;52.082;5.426;2023-08-21T02:13:54;4.00;;;1.65;;
67889;SDS011;54685;52.082;5.426;2023-08-21T02:16:21;7.03;;;2.00;;
67889;SDS011;54685;52.082;5.426;2023-08-21T02:18:48;4.15;;;1.77;;
67889;SDS011;54685;52.082;5.426;2023-08-21T02:21:15;3.63;;;1.67;;
67889;SDS011;54685;52.082;5.426;2023-08-21T02:23:42;7.07;;;1.80;;
67889;SDS011;54685;52.082;5.426;2023-08-21T02:26:09;7.13;;;1.90;;
67889;SDS011;54685;52.082;5.426;2023-08-21T02:28:38;4.10;;;1.95;;
67889;SDS011;54685;52.082;5.426;2023-08-21T02:31:08;9.77;;;2.35;;
67889;SDS011;54685;52.082;5.426;2023-08-21T02:33:37;4.60;;;2.00;;
67889;SDS011;54685;52.082;5.426;2023-08-21T02:36:04;12.15;;;2.30;;
67889;SDS011;54685;52.082;5.426;2023-08-21T02:38:30;3.90;;;1.63;;
67889;SDS011;54685;52.082;5.426;2023-08-21T02:40:57;5.03;;;1.98;;
67889;SDS011;54685;52.082;5.426;2023-08-21T02:43:24;5.85;;;2.13;;
67889;SDS011;54685;52.082;5.426;2023-08-21T02:45:51;3.92;;;1.92;;
67889;SDS011;54685;52.082;5.426;2023-08-21T02:48:17;5.43;;;2.13;;
67889;SDS011;54685;52.082;5.426;2023-08-21T02:50:44;6.10;;;1.60;;
67889;SDS011;54685;52.082;5.426;2023-08-21T02:53:11;5.50;;;2.15;;
67889;SDS011;54685;52.082;5.426;2023-08-21T02:55:38;6.47;;;2.05;;
67889;SDS011;54685;52.082;5.426;2023-08-21T02:58:05;9.75;;;2.85;;
67889;SDS011;54685;52.082;5.426;2023-08-21T03:00:32;8.75;;;2.50;;
67889;SDS011;54685;52.082;5.426;2023-08-21T03:02:59;7.90;;;2.60;;
67889;SDS011;54685;52.082;5.426;2023-08-21T03:05:26;7.97;;;2.75;;
67889;SDS011;54685;52.082;5.426;2023-08-21T03:07:53;8.70;;;2.40;;
67889;SDS011;54685;52.082;5.426;2023-08-21T03:10:19;9.18;;;2.10;;
67889;SDS011;54685;52.082;5.426;2023-08-21T03:12:49;8.15;;;2.47;;
67889;SDS011;54685;52.082;5.426;2023-08-21T03:15:16;10.80;;;2.47;;
67889;SDS011;54685;52.082;5.426;2023-08-21T03:17:42;9.32;;;2.42;;
67889;SDS011;54685;52.082;5.426;2023-08-21T03:20:10;7.97;;;2.63;;
67889;SDS011;54685;52.082;5.426;2023-08-21T03:22:37;9.48;;;2.72;;
67889;SDS011;54685;52.082;5.426;2023-08-21T03:25:04;5.18;;;2.60;;
67889;SDS011;54685;52.082;5.426;2023-08-21T03:27:31;8.25;;;2.55;;
67889;SDS011;54685;52.082;5.426;2023-08-21T03:29:58;6.40;;;2.40;;
67889;SDS011;54685;52.082;5.426;2023-08-21T03:32:27;7.30;;;2.55;;
67889;SDS011;54685;52.082;5.426;2023-08-21T03:34:54;6.78;;;2.45;;
67889;SDS011;54685;52.082;5.426;2023-08-21T03:37:21;7.47;;;2.78;;
67889;SDS011;54685;52.082;5.426;2023-08-21T03:39:48;9.88;;;2.30;;
67889;SDS011;54685;52.082;5.426;2023-08-21T03:42:15;6.63;;;2.25;;
67889;SDS011;54685;52.082;5.426;2023-08-21T03:44:44;7.00;;;2.40;;
67889;SDS011;54685;52.082;5.426;2023-08-21T03:47:11;10.98;;;2.58;;
67889;SDS011;54685;52.082;5.426;2023-08-21T03:49:49;5.75;;;2.67;;
67889;SDS011;54685;52.082;5.426;2023-08-21T03:52:17;8.10;;;2.78;;
67889;SDS011;54685;52.082;5.426;2023-08-21T03:54:43;8.35;;;2.90;;
67889;SDS011;54685;52.082;5.426;2023-08-21T03:57:10;8.27;;;2.92;;
67889;SDS011;54685;52.082;5.426;2023-08-21T03:59:37;10.52;;;2.38;;
67889;SDS011;54685;52.082;5.426;2023-08-21T04:02:04;6.35;;;2.35;;
67889;SDS011;54685;52.082;5.426;2023-08-21T04:04:31;9.13;;;3.10;;
67889;SDS011;54685;52.082;5.426;2023-08-21T04:06:58;7.10;;;2.60;;
67889;SDS011;54685;52.082;5.426;2023-08-21T04:09:25;8.05;;;2.40;;
67889;SDS011;54685;52.082;5.426;2023-08-21T04:11:51;6.53;;;2.22;;
67889;SDS011;54685;52.082;5.426;2023-08-21T04:14:18;6.18;;;2.35;;
67889;SDS011;54685;52.082;5.426;2023-08-21T04:16:46;6.10;;;2.13;;
67889;SDS011;54685;52.082;5.426;2023-08-21T04:19:13;5.47;;;2.05;;
67889;SDS011;54685;52.082;5.426;2023-08-21T04:21:39;5.15;;;1.90;;
67889;SDS011;54685;52.082;5.426;2023-08-21T04:24:06;11.35;;;2.03;;
67889;SDS011;54685;52.082;5.426;2023-08-21T04:26:33;7.13;;;1.90;;
67889;SDS011;54685;52.082;5.426;2023-08-21T04:29:00;4.45;;;1.77;;
67889;SDS011;54685;52.082;5.426;2023-08-21T04:31:28;7.30;;;2.13;;
67889;SDS011;54685;52.082;5.426;2023-08-21T04:33:55;4.30;;;1.70;;
67889;SDS011;54685;52.082;5.426;2023-08-21T04:36:22;7.65;;;2.40;;
67889;SDS011;54685;52.082;5.426;2023-08-21T04:38:50;5.10;;;2.35;;
67889;SDS011;54685;52.082;5.426;2023-08-21T04:41:17;4.28;;;2.15;;
67889;SDS011;54685;52.082;5.426;2023-08-21T04:43:46;5.20;;;1.98;;
67889;SDS011;54685;52.082;5.426;2023-08-21T04:46:13;6.43;;;2.05;;
67889;SDS011;54685;52.082;5.426;2023-08-21T04:48:41;8.95;;;2.60;;
67889;SDS011;54685;52.082;5.426;2023-08-21T04:51:08;5.82;;;1.98;;
67889;SDS011;54685;52.082;5.426;2023-08-21T04:53:36;9.32;;;2.70;;
67889;SDS011;54685;52.082;5.426;2023-08-21T04:56:07;6.00;;;2.40;;
67889;SDS011;54685;52.082;5.426;2023-08-21T04:58:34;6.47;;;2.28;;
67889;SDS011;54685;52.082;5.426;2023-08-21T05:01:01;4.63;;;1.92;;
67889;SDS011;54685;52.082;5.426;2023-08-21T05:03:30;5.70;;;2.42;;
67889;SDS011;54685;52.082;5.426;2023-08-21T05:05:58;6.80;;;2.05;;
67889;SDS011;54685;52.082;5.426;2023-08-21T05:08:26;5.35;;;1.83;;
67889;SDS011;54685;52.082;5.426;2023-08-21T05:10:56;6.65;;;2.33;;
67889;SDS011;54685;52.082;5.426;2023-08-21T05:13:31;5.72;;;2.20;;
67889;SDS011;54685;52.082;5.426;2023-08-21T05:15:59;9.45;;;2.10;;
67889;SDS011;54685;52.082;5.426;2023-08-21T05:18:32;8.93;;;2.42;;
67889;SDS011;54685;52.082;5.426;2023-08-21T05:20:59;6.38;;;2.20;;
67889;SDS011;54685;52.082;5.426;2023-08-21T05:23:27;8.65;;;2.25;;
67889;SDS011;54685;52.082;5.426;2023-08-21T05:25:59;7.95;;;2.20;;
67889;SDS011;54685;52.082;5.426;2023-08-21T05:28:26;5.97;;;2.20;;
67889;SDS011;54685;52.082;5.426;2023-08-21T05:30:53;10.45;;;3.00;;
67889;SDS011;54685;52.082;5.426;2023-08-21T05:33:20;8.45;;;2.35;;
67889;SDS011;54685;52.082;5.426;2023-08-21T05:35:49;8.60;;;2.40;;
67889;SDS011;54685;52.082;5.426;2023-08-21T05:38:16;6.13;;;2.20;;
67889;SDS011;54685;52.082;5.426;2023-08-21T05:40:43;6.78;;;2.17;;
67889;SDS011;54685;52.082;5.426;2023-08-21T05:43:10;5.80;;;2.15;;
67889;SDS011;54685;52.082;5.426;2023-08-21T05:45:40;5.28;;;2.72;;
67889;SDS011;54685;52.082;5.426;2023-08-21T05:48:07;4.95;;;2.60;;
67889;SDS011;54685;52.082;5.426;2023-08-21T05:50:34;15.32;;;2.60;;
67889;SDS011;54685;52.082;5.426;2023-08-21T05:53:03;10.68;;;2.58;;
67889;SDS011;54685;52.082;5.426;2023-08-21T05:55:31;9.27;;;2.83;;
67889;SDS011;54685;52.082;5.426;2023-08-21T05:57:59;14.00;;;3.15;;
67889;SDS011;54685;52.082;5.426;2023-08-21T06:00:26;5.97;;;2.80;;
67889;SDS011;54685;52.082;5.426;2023-08-21T06:02:52;17.27;;;3.40;;
67889;SDS011;54685;52.082;5.426;2023-08-21T06:05:41;10.43;;;2.88;;
67889;SDS011;54685;52.082;5.426;2023-08-21T06:08:10;9.05;;;2.72;;
67889;SDS011;54685;52.082;5.426;2023-08-21T06:10:36;13.60;;;3.33;;
67889;SDS011;54685;52.082;5.426;2023-08-21T06:13:05;14.43;;;3.33;;
67889;SDS011;54685;52.082;5.426;2023-08-21T06:15:32;15.20;;;3.05;;
67889;SDS011;54685;52.082;5.426;2023-08-21T06:18:00;19.00;;;3.40;;
67889;SDS011;54685;52.082;5.426;2023-08-21T06:20:27;13.20;;;3.20;;
67889;SDS011;54685;52.082;5.426;2023-08-21T06:22:53;20.20;;;3.33;;
67889;SDS011;54685;52.082;5.426;2023-08-21T06:25:20;10.80;;;3.38;;
67889;SDS011;54685;52.082;5.426;2023-08-21T06:27:48;15.70;;;3.25;;
67889;SDS011;54685;52.082;5.426;2023-08-21T06:30:25;21.05;;;3.33;;
67889;SDS011;54685;52.082;5.426;2023-08-21T06:32:53;389.60;;;37.20;;
67889;SDS011;54685;52.082;5.426;2023-08-21T06:35:24;411.92;;;40.53;;
67889;SDS011;54685;52.082;5.426;2023-08-21T06:37:52;103.85;;;12.68;;
67889;SDS011;54685;52.082;5.426;2023-08-21T06:40:21;50.75;;;7.95;;
67889;SDS011;54685;52.082;5.426;2023-08-21T06:42:56;35.17;;;4.90;;
67889;SDS011;54685;52.082;5.426;2023-08-21T06:45:26;19.38;;;4.22;;
67889;SDS011;54685;52.082;5.426;2023-08-21T06:47:57;46.22;;;5.78;;
67889;SDS011;54685;52.082;5.426;2023-08-21T06:50:24;33.65;;;5.93;;
67889;SDS011;54685;52.082;5.426;2023-08-21T06:52:51;22.20;;;4.22;;
67889;SDS011;54685;52.082;5.426;2023-08-21T06:55:18;15.10;;;3.80;;
67889;SDS011;54685;52.082;5.426;2023-08-21T06:57:45;14.45;;;3.63;;
67889;SDS011;54685;52.082;5.426;2023-08-21T07:00:12;9.32;;;3.55;;
67889;SDS011;54685;52.082;5.426;2023-08-21T07:02:39;11.00;;;3.65;;
67889;SDS011;54685;52.082;5.426;2023-08-21T07:05:06;8.57;;;3.47;;
67889;SDS011;54685;52.082;5.426;2023-08-21T07:07:37;10.13;;;3.70;;
67889;SDS011;54685;52.082;5.426;2023-08-21T07:10:04;13.80;;;4.50;;
67889;SDS011;54685;52.082;5.426;2023-08-21T07:12:31;9.55;;;4.10;;
67889;SDS011;54685;52.082;5.426;2023-08-21T07:14:58;16.08;;;4.05;;
67889;SDS011;54685;52.082;5.426;2023-08-21T07:17:25;18.52;;;4.18;;
67889;SDS011;54685;52.082;5.426;2023-08-21T07:19:52;20.20;;;4.25;;
67889;SDS011;54685;52.082;5.426;2023-08-21T07:22:19;10.82;;;2.95;;
67889;SDS011;54685;52.082;5.426;2023-08-21T07:24:46;12.90;;;3.40;;
67889;SDS011;54685;52.082;5.426;2023-08-21T07:27:14;12.52;;;2.88;;
67889;SDS011;54685;52.082;5.426;2023-08-21T07:29:41;9.82;;;2.95;;
67889;SDS011;54685;52.082;5.426;2023-08-21T07:32:08;10.68;;;3.13;;
67889;SDS011;54685;52.082;5.426;2023-08-21T07:34:35;11.13;;;3.13;;
67889;SDS011;54685;52.082;5.426;2023-08-21T07:37:01;10.73;;;2.60;;
67889;SDS011;54685;52.082;5.426;2023-08-21T07:39:28;15.02;;;4.45;;
67889;SDS011;54685;52.082;5.426;2023-08-21T07:41:56;20.15;;;4.88;;
67889;SDS011;54685;52.082;5.426;2023-08-21T07:44:22;16.75;;;4.72;;
67889;SDS011;54685;52.082;5.426;2023-08-21T07:46:49;20.42;;;5.25;;
67889;SDS011;54685;52.082;5.426;2023-08-21T07:49:16;20.15;;;5.50;;
67889;SDS011;54685;52.082;5.426;2023-08-21T07:51:43;19.20;;;5.60;;
67889;SDS011;54685;52.082;5.426;2023-08-21T07:54:10;18.38;;;5.22;;
67889;SDS011;54685;52.082;5.426;2023-08-21T07:56:37;15.02;;;4.18;;
67889;SDS011;54685;52.082;5.426;2023-08-21T07:59:06;12.20;;;4.07;;
67889;SDS011;54685;52.082;5.426;2023-08-21T08:01:32;14.85;;;4.03;;
67889;SDS011;54685;52.082;5.426;2023-08-21T08:04:06;15.10;;;3.88;;
67889;SDS011;54685;52.082;5.426;2023-08-21T08:06:42;9.43;;;3.15;;
67889;SDS011;54685;52.082;5.426;2023-08-21T08:09:08;14.35;;;4.13;;
67889;SDS011;54685;52.082;5.426;2023-08-21T08:11:35;11.35;;;4.00;;
67889;SDS011;54685;52.082;5.426;2023-08-21T08:14:02;9.43;;;2.95;;
67889;SDS011;54685;52.082;5.426;2023-08-21T08:16:29;12.20;;;2.70;;
67889;SDS011;54685;52.082;5.426;2023-08-21T08:18:56;12.20;;;2.83;;
67889;SDS011;54685;52.082;5.426;2023-08-21T08:21:24;11.48;;;3.55;;
67889;SDS011;54685;52.082;5.426;2023-08-21T08:23:51;12.40;;;3.97;;
67889;SDS011;54685;52.082;5.426;2023-08-21T08:26:18;8.85;;;2.00;;
67889;SDS011;54685;52.082;5.426;2023-08-21T08:28:45;7.95;;;2.42;;
67889;SDS011;54685;52.082;5.426;2023-08-21T08:31:18;9.05;;;2.20;;
67889;SDS011;54685;52.082;5.426;2023-08-21T08:33:45;7.13;;;1.90;;
67889;SDS011;54685;52.082;5.426;2023-08-21T08:36:12;9.18;;;2.08;;
67889;SDS011;54685;52.082;5.426;2023-08-21T08:38:39;9.02;;;1.70;;
67889;SDS011;54685;52.082;5.426;2023-08-21T08:41:14;8.50;;;1.65;;
67889;SDS011;54685;52.082;5.426;2023-08-21T08:43:51;8.20;;;2.10;;
67889;SDS011;54685;52.082;5.426;2023-08-21T08:46:23;5.00;;;1.60;;
67889;SDS011;54685;52.082;5.426;2023-08-21T08:48:52;8.45;;;1.80;;
67889;SDS011;54685;52.082;5.426;2023-08-21T08:51:19;10.18;;;2.10;;
67889;SDS011;54685;52.082;5.426;2023-08-21T08:53:47;8.95;;;2.28;;
67889;SDS011;54685;52.082;5.426;2023-08-21T08:56:19;6.40;;;1.90;;
67889;SDS011;54685;52.082;5.426;2023-08-21T08:58:46;6.18;;;1.85;;
67889;SDS011;54685;52.082;5.426;2023-08-21T09:01:13;6.15;;;1.77;;
67889;SDS011;54685;52.082;5.426;2023-08-21T09:03:41;7.95;;;1.88;;
67889;SDS011;54685;52.082;5.426;2023-08-21T09:06:08;5.88;;;1.90;;
67889;SDS011;54685;52.082;5.426;2023-08-21T09:08:35;7.03;;;1.70;;
67889;SDS011;54685;52.082;5.426;2023-08-21T09:11:02;6.70;;;2.10;;
67889;SDS011;54685;52.082;5.426;2023-08-21T09:13:32;9.63;;;2.10;;
67889;SDS011;54685;52.082;5.426;2023-08-21T09:15:59;5.95;;;1.95;;
67889;SDS011;54685;52.082;5.426;2023-08-21T09:18:27;7.05;;;2.03;;
67889;SDS011;54685;52.082;5.426;2023-08-21T09:20:55;4.85;;;1.60;;
67889;SDS011;54685;52.082;5.426;2023-08-21T09:23:22;7.75;;;1.83;;
67889;SDS011;54685;52.082;5.426;2023-08-21T09:25:48;6.80;;;1.88;;
67889;SDS011;54685;52.082;5.426;2023-08-21T09:28:19;5.65;;;1.50;;
67889;SDS011;54685;52.082;5.426;2023-08-21T09:30:51;5.18;;;1.35;;
67889;SDS011;54685;52.082;5.426;2023-08-21T09:33:19;7.72;;;1.65;;
67889;SDS011;54685;52.082;5.426;2023-08-21T09:35:47;5.50;;;1.48;;
67889;SDS011;54685;52.082;5.426;2023-08-21T09:38:15;9.73;;;1.98;;
67889;SDS011;54685;52.082;5.426;2023-08-21T09:40:43;6.35;;;1.70;;
67889;SDS011;54685;52.082;5.426;2023-08-21T09:43:17;4.90;;;1.73;;
67889;SDS011;54685;52.082;5.426;2023-08-21T09:45:46;4.60;;;1.70;;
67889;SDS011;54685;52.082;5.426;2023-08-21T09:48:14;7.20;;;1.50;;
67889;SDS011;54685;52.082;5.426;2023-08-21T09:50:41;7.25;;;1.83;;
67889;SDS011;54685;52.082;5.426;2023-08-21T09:53:12;5.45;;;1.45;;
67889;SDS011;54685;52.082;5.426;2023-08-21T09:55:39;6.93;;;2.05;;
67889;SDS011;54685;52.082;5.426;2023-08-21T09:58:08;4.32;;;1.40;;
67889;SDS011;54685;52.082;5.426;2023-08-21T10:00:36;9.80;;;2.08;;
67889;SDS011;54685;52.082;5.426;2023-08-21T10:03:06;7.30;;;1.88;;
67889;SDS011;54685;52.082;5.426;2023-08-21T10:05:37;6.93;;;1.92;;
67889;SDS011;54685;52.082;5.426;2023-08-21T10:08:05;5.43;;;1.67;;
67889;SDS011;54685;52.082;5.426;2023-08-21T10:10:36;9.05;;;1.60;;
67889;SDS011;54685;52.082;5.426;2023-08-21T10:15:31;6.70;;;1.70;;
67889;SDS011;54685;52.082;5.426;2023-08-21T10:20:46;6.30;;;1.70;;
67889;SDS011;54685;52.082;5.426;2023-08-21T10:23:23;6.80;;;2.00;;
67889;SDS011;54685;52.082;5.426;2023-08-21T10:25:55;5.47;;;1.90;;
67889;SDS011;54685;52.082;5.426;2023-08-21T10:31:26;7.72;;;1.75;;
67889;SDS011;54685;52.082;5.426;2023-08-21T10:34:08;6.78;;;1.83;;
67889;SDS011;54685;52.082;5.426;2023-08-21T10:37:02;4.60;;;1.58;;
67889;SDS011;54685;52.082;5.426;2023-08-21T10:39:33;4.40;;;1.52;;
67889;SDS011;54685;52.082;5.426;2023-08-21T10:42:02;3.40;;;1.30;;
67889;SDS011;54685;52.082;5.426;2023-08-21T10:47:19;6.78;;;1.40;;
67889;SDS011;54685;52.082;5.426;2023-08-21T10:49:51;6.07;;;1.40;;
67889;SDS011;54685;52.082;5.426;2023-08-21T10:52:20;4.35;;;1.60;;
67889;SDS011;54685;52.082;5.426;2023-08-21T10:54:54;5.15;;;1.38;;
67889;SDS011;54685;52.082;5.426;2023-08-21T10:57:26;6.22;;;1.60;;
67889;SDS011;54685;52.082;5.426;2023-08-21T11:02:24;3.75;;;1.10;;
67889;SDS011;54685;52.082;5.426;2023-08-21T11:04:52;5.60;;;1.42;;
67889;SDS011;54685;52.082;5.426;2023-08-21T11:07:20;7.15;;;1.90;;
67889;SDS011;54685;52.082;5.426;2023-08-21T11:09:48;5.75;;;1.80;;
67889;SDS011;54685;52.082;5.426;2023-08-21T11:12:16;4.47;;;1.40;;
67889;SDS011;54685;52.082;5.426;2023-08-21T11:14:44;4.53;;;1.60;;
67889;SDS011;54685;52.082;5.426;2023-08-21T11:17:11;7.93;;;1.23;;
67889;SDS011;54685;52.082;5.426;2023-08-21T11:19:39;5.90;;;1.50;;
67889;SDS011;54685;52.082;5.426;2023-08-21T11:22:06;3.33;;;1.50;;
67889;SDS011;54685;52.082;5.426;2023-08-21T11:27:03;4.05;;;1.17;;
67889;SDS011;54685;52.082;5.426;2023-08-21T11:29:40;6.35;;;1.35;;
67889;SDS011;54685;52.082;5.426;2023-08-21T11:32:09;6.55;;;1.73;;
67889;SDS011;54685;52.082;5.426;2023-08-21T11:34:36;5.80;;;1.40;;
67889;SDS011;54685;52.082;5.426;2023-08-21T11:37:04;7.45;;;1.73;;
67889;SDS011;54685;52.082;5.426;2023-08-21T11:39:41;6.65;;;1.55;;
67889;SDS011;54685;52.082;5.426;2023-08-21T11:42:12;5.72;;;1.35;;
67889;SDS011;54685;52.082;5.426;2023-08-21T11:44:41;5.00;;;1.70;;
67889;SDS011;54685;52.082;5.426;2023-08-21T11:47:16;6.43;;;1.50;;
67889;SDS011;54685;52.082;5.426;2023-08-21T11:49:43;3.13;;;1.30;;
67889;SDS011;54685;52.082;5.426;2023-08-21T11:52:13;4.63;;;1.55;;
67889;SDS011;54685;52.082;5.426;2023-08-21T11:54:43;7.60;;;2.10;;
67889;SDS011;54685;52.082;5.426;2023-08-21T11:57:15;6.80;;;1.92;;
67889;SDS011;54685;52.082;5.426;2023-08-21T11:59:42;6.07;;;1.60;;
67889;SDS011;54685;52.082;5.426;2023-08-21T12:02:21;9.50;;;1.95;;
67889;SDS011;54685;52.082;5.426;2023-08-21T12:05:14;5.32;;;1.38;;
67889;SDS011;54685;52.082;5.426;2023-08-21T12:07:41;3.45;;;0.90;;
67889;SDS011;54685;52.082;5.426;2023-08-21T12:10:08;4.80;;;1.20;;
67889;SDS011;54685;52.082;5.426;2023-08-21T12:12:35;4.85;;;1.30;;
67889;SDS011;54685;52.082;5.426;2023-08-21T12:15:02;2.22;;;0.90;;
67889;SDS011;54685;52.082;5.426;2023-08-21T12:17:29;2.80;;;0.90;;
67889;SDS011;54685;52.082;5.426;2023-08-21T12:19:56;1.73;;;0.80;;
67889;SDS011;54685;52.082;5.426;2023-08-21T12:22:26;3.60;;;1.27;;
67889;SDS011;54685;52.082;5.426;2023-08-21T12:24:53;3.40;;;1.05;;
67889;SDS011;54685;52.082;5.426;2023-08-21T12:27:20;5.63;;;1.08;;
67889;SDS011;54685;52.082;5.426;2023-08-21T12:29:48;3.47;;;1.05;;
67889;SDS011;54685;52.082;5.426;2023-08-21T12:32:15;3.92;;;1.00;;
67889;SDS011;54685;52.082;5.426;2023-08-21T12:34:43;3.08;;;1.23;;
67889;SDS011;54685;52.082;5.426;2023-08-21T12:37:10;4.75;;;1.23;;
67889;SDS011;54685;52.082;5.426;2023-08-21T12:39:37;2.85;;;1.10;;
67889;SDS011;54685;52.082;5.426;2023-08-21T12:42:04;4.70;;;0.95;;
67889;SDS011;54685;52.082;5.426;2023-08-21T12:44:31;4.38;;;1.10;;
67889;SDS011;54685;52.082;5.426;2023-08-21T12:46:59;4.50;;;1.00;;
67889;SDS011;54685;52.082;5.426;2023-08-21T12:49:26;3.28;;;0.93;;
67889;SDS011;54685;52.082;5.426;2023-08-21T12:51:53;1.70;;;0.95;;
67889;SDS011;54685;52.082;5.426;2023-08-21T12:54:21;4.72;;;1.33;;
67889;SDS011;54685;52.082;5.426;2023-08-21T12:56:48;3.85;;;1.15;;
67889;SDS011;54685;52.082;5.426;2023-08-21T12:59:15;4.43;;;0.90;;
67889;SDS011;54685;52.082;5.426;2023-08-21T13:01:45;2.78;;;1.00;;
67889;SDS011;54685;52.082;5.426;2023-08-21T13:04:12;7.13;;;1.20;;
67889;SDS011;54685;52.082;5.426;2023-08-21T13:06:39;3.65;;;1.35;;
67889;SDS011;54685;52.082;5.426;2023-08-21T13:09:06;4.95;;;1.40;;
67889;SDS011;54685;52.082;5.426;2023-08-21T13:11:33;4.95;;;1.58;;
67889;SDS011;54685;52.082;5.426;2023-08-21T13:14:00;3.10;;;1.10;;
67889;SDS011;54685;52.082;5.426;2023-08-21T13:16:27;7.85;;;1.92;;
67889;SDS011;54685;52.082;5.426;2023-08-21T13:18:54;4.55;;;1.10;;
67889;SDS011;54685;52.082;5.426;2023-08-21T13:21:21;11.32;;;1.90;;
67889;SDS011;54685;52.082;5.426;2023-08-21T13:23:48;3.97;;;1.42;;
67889;SDS011;54685;52.082;5.426;2023-08-21T13:26:15;2.65;;;1.25;;
67889;SDS011;54685;52.082;5.426;2023-08-21T13:28:42;3.85;;;1.50;;
67889;SDS011;54685;52.082;5.426;2023-08-21T13:31:08;7.43;;;1.65;;
67889;SDS011;54685;52.082;5.426;2023-08-21T13:33:46;4.63;;;1.67;;
67889;SDS011;54685;52.082;5.426;2023-08-21T13:36:17;3.40;;;1.23;;
67889;SDS011;54685;52.082;5.426;2023-08-21T13:38:50;6.90;;;1.90;;
67889;SDS011;54685;52.082;5.426;2023-08-21T13:41:16;4.57;;;1.40;;
67889;SDS011;54685;52.082;5.426;2023-08-21T13:43:43;5.15;;;1.88;;
67889;SDS011;54685;52.082;5.426;2023-08-21T13:46:11;5.05;;;1.42;;
67889;SDS011;54685;52.082;5.426;2023-08-21T13:48:38;7.70;;;1.52;;
67889;SDS011;54685;52.082;5.426;2023-08-21T13:51:05;3.60;;;1.10;;
67889;SDS011;54685;52.082;5.426;2023-08-21T13:53:32;4.45;;;1.30;;
67889;SDS011;54685;52.082;5.426;2023-08-21T13:55:59;3.10;;;1.30;;
67889;SDS011;54685;52.082;5.426;2023-08-21T13:58:26;4.70;;;1.17;;
67889;SDS011;54685;52.082;5.426;2023-08-21T14:00:53;5.07;;;1.73;;
67889;SDS011;54685;52.082;5.426;2023-08-21T14:03:20;3.88;;;1.55;;
67889;SDS011;54685;52.082;5.426;2023-08-21T14:05:46;3.65;;;1.20;;
67889;SDS011;54685;52.082;5.426;2023-08-21T14:08:13;2.97;;;1.33;;
67889;SDS011;54685;52.082;5.426;2023-08-21T14:10:40;4.63;;;1.60;;
67889;SDS011;54685;52.082;5.426;2023-08-21T14:13:07;1.30;;;0.90;;
67889;SDS011;54685;52.082;5.426;2023-08-21T14:15:34;3.50;;;1.10;;
67889;SDS011;54685;52.082;5.426;2023-08-21T14:18:01;3.72;;;1.77;;
67889;SDS011;54685;52.082;5.426;2023-08-21T14:20:29;3.90;;;1.38;;
67889;SDS011;54685;52.082;5.426;2023-08-21T14:22:56;3.65;;;1.40;;
67889;SDS011;54685;52.082;5.426;2023-08-21T14:25:23;4.80;;;1.50;;
67889;SDS011;54685;52.082;5.426;2023-08-21T14:27:50;6.32;;;1.10;;
67889;SDS011;54685;52.082;5.426;2023-08-21T14:30:17;5.55;;;1.63;;
67889;SDS011;54685;52.082;5.426;2023-08-21T14:32:43;4.78;;;1.20;;
67889;SDS011;54685;52.082;5.426;2023-08-21T14:35:11;5.13;;;1.50;;
67889;SDS011;54685;52.082;5.426;2023-08-21T14:37:38;4.20;;;1.05;;
67889;SDS011;54685;52.082;5.426;2023-08-21T14:40:07;7.50;;;1.30;;
67889;SDS011;54685;52.082;5.426;2023-08-21T14:42:36;4.75;;;1.45;;
67889;SDS011;54685;52.082;5.426;2023-08-21T14:45:04;6.75;;;1.48;;
67889;SDS011;54685;52.082;5.426;2023-08-21T14:47:31;5.78;;;1.55;;
67889;SDS011;54685;52.082;5.426;2023-08-21T14:49:58;2.60;;;1.13;;
67889;SDS011;54685;52.082;5.426;2023-08-21T14:52:25;5.10;;;1.25;;
67889;SDS011;54685;52.082;5.426;2023-08-21T14:54:52;6.20;;;1.58;;
67889;SDS011;54685;52.082;5.426;2023-08-21T14:57:19;7.68;;;1.20;;
67889;SDS011;54685;52.082;5.426;2023-08-21T14:59:46;5.03;;;1.25;;
67889;SDS011;54685;52.082;5.426;2023-08-21T15:02:13;5.30;;;1.10;;
67889;SDS011;54685;52.082;5.426;2023-08-21T15:04:40;3.80;;;1.02;;
67889;SDS011;54685;52.082;5.426;2023-08-21T15:07:07;5.03;;;1.10;;
67889;SDS011;54685;52.082;5.426;2023-08-21T15:09:34;5.18;;;1.35;;
67889;SDS011;54685;52.082;5.426;2023-08-21T15:12:04;6.10;;;1.25;;
67889;SDS011;54685;52.082;5.426;2023-08-21T15:14:31;4.78;;;1.40;;